createdAt,value
2023-04-14T00:00:38.865Z,0
2023-04-14T00:16:02.174Z,0
2023-04-14T00:31:25.460Z,0
2023-04-14T00:46:48.774Z,0
2023-04-14T01:02:12.079Z,0
2023-04-14T01:17:35.370Z,0
2023-04-14T01:32:57.706Z,0
2023-04-14T01:48:20.997Z,0
2023-04-14T02:03:44.290Z,0
2023-04-14T02:19:07.609Z,0
2023-04-14T02:34:30.911Z,0
2023-04-14T02:49:54.202Z,0
2023-04-14T03:05:17.505Z,0
2023-04-14T03:20:40.817Z,0
2023-04-14T03:36:04.126Z,0
2023-04-14T03:51:27.425Z,0
2023-04-14T04:06:50.681Z,3
2023-04-14T04:22:13.955Z,25
2023-04-14T04:37:37.220Z,56
2023-04-14T04:52:59.484Z,128
2023-04-14T05:08:22.744Z,179
2023-04-14T05:23:46.006Z,236
2023-04-14T05:39:09.266Z,312
2023-04-14T05:54:32.531Z,433
2023-04-14T06:09:55.780Z,472
2023-04-14T06:25:19.042Z,590
2023-04-14T06:40:42.319Z,716
2023-04-14T06:56:05.572Z,908
2023-04-14T07:11:28.825Z,1201
2023-04-14T07:26:52.087Z,1097
2023-04-14T07:42:15.348Z,1074
2023-04-14T07:57:38.609Z,1302
2023-04-14T08:13:00.886Z,1354
2023-04-14T08:28:24.146Z,1361
2023-04-14T08:43:47.402Z,1652
2023-04-14T08:59:10.667Z,2245
2023-04-14T09:14:33.936Z,2170
2023-04-14T09:29:57.198Z,2863
2023-04-14T09:45:20.443Z,3762
2023-04-14T10:00:43.717Z,2740
2023-04-14T10:16:06.972Z,2341
2023-04-14T10:31:30.219Z,2967
2023-04-14T10:46:53.489Z,3012
2023-04-14T11:02:16.743Z,2807
2023-04-14T11:17:39.998Z,1827
2023-04-14T11:33:02.282Z,1387
2023-04-14T11:48:25.540Z,3107
2023-04-14T12:03:48.803Z,3245
2023-04-14T12:19:12.058Z,2623
2023-04-14T12:34:35.303Z,1493
2023-04-14T12:35:58.713Z,1431
2023-04-14T12:37:22.133Z,787
2023-04-14T12:38:45.535Z,575
2023-04-14T12:40:08.955Z,706
2023-04-14T12:41:32.356Z,873
2023-04-14T12:42:55.771Z,1188
2023-04-14T12:44:19.167Z,1505
2023-04-14T12:45:42.576Z,2015
2023-04-14T12:47:05.016Z,2888
2023-04-14T12:48:28.417Z,3852
2023-04-14T12:49:51.844Z,4124
2023-04-14T12:51:15.258Z,3974
2023-04-14T12:52:38.664Z,3072
2023-04-14T12:54:02.057Z,3731
2023-04-14T12:55:25.482Z,4187
2023-04-14T12:56:48.894Z,4642
2023-04-14T12:58:12.297Z,4541
2023-04-14T12:59:35.709Z,3797
2023-04-14T13:00:59.121Z,3123
2023-04-14T13:02:22.522Z,2905
2023-04-14T13:03:45.938Z,3072
2023-04-14T13:05:08.356Z,1771
2023-04-14T13:06:31.754Z,1317
2023-04-14T13:07:55.167Z,1459
2023-04-14T13:09:18.586Z,1902
2023-04-14T13:10:41.999Z,1756
2023-04-14T13:12:05.390Z,1804
2023-04-14T13:13:27.000Z,1956
2023-04-14T13:14:51.236Z,2100
2023-04-14T13:16:14.650Z,2708
2023-04-14T13:17:38.056Z,2235
2023-04-14T13:19:01.468Z,2165
2023-04-14T13:20:24.862Z,2152
2023-04-14T13:21:48.272Z,1569
2023-04-14T13:23:11.686Z,1282
2023-04-14T13:24:35.090Z,1458
2023-04-14T13:25:58.511Z,1625
2023-04-14T13:27:21.918Z,2079
2023-04-14T13:28:45.333Z,1858
2023-04-14T13:30:08.743Z,1290
2023-04-14T13:31:31.168Z,1262
2023-04-14T13:32:54.569Z,1201
2023-04-14T13:34:17.971Z,3072
2023-04-14T13:35:41.393Z,989
2023-04-14T13:37:04.791Z,834
2023-04-14T13:38:28.201Z,908
2023-04-14T13:39:51.602Z,1058
2023-04-14T13:41:15.017Z,800
2023-04-14T13:42:38.421Z,916
2023-04-14T13:44:01.845Z,1011
2023-04-14T13:45:25.237Z,1129
2023-04-14T13:46:48.649Z,1229
2023-04-14T13:48:12.063Z,1553
2023-04-14T13:49:34.488Z,1538
2023-04-14T13:50:57.882Z,1357
2023-04-14T13:52:21.303Z,1232
2023-04-14T13:53:44.706Z,1374
2023-04-14T13:55:08.123Z,1442
2023-04-14T13:56:31.526Z,1169
2023-04-14T13:57:54.925Z,1084
2023-04-14T13:59:18.341Z,1131
2023-04-14T14:00:41.739Z,960
2023-04-14T14:02:05.163Z,859
2023-04-14T14:03:28.554Z,787
2023-04-14T14:04:51.976Z,787
2023-04-14T14:06:15.383Z,805
2023-04-14T14:07:37.798Z,613
2023-04-14T14:09:01.207Z,597
2023-04-14T14:10:24.622Z,578
2023-04-14T14:11:48.030Z,580
2023-04-14T14:13:11.451Z,635
2023-04-14T14:14:34.844Z,701
2023-04-14T14:15:58.257Z,725
2023-04-14T14:17:21.676Z,715
2023-04-14T14:18:45.080Z,3072
2023-04-14T14:20:08.486Z,579
2023-04-14T14:21:31.898Z,566
2023-04-14T14:22:55.314Z,453
2023-04-14T14:24:18.725Z,408
2023-04-14T14:25:41.143Z,413
2023-04-14T14:28:27.962Z,3072
2023-04-14T14:29:51.381Z,368
2023-04-14T14:31:14.776Z,420
2023-04-14T14:32:38.205Z,404
2023-04-14T14:34:01.604Z,460
2023-04-14T14:35:25.014Z,406
2023-04-14T14:36:48.429Z,491
2023-04-14T14:38:11.825Z,484
2023-04-14T14:39:35.238Z,578
2023-04-14T14:40:58.646Z,658
2023-04-14T14:42:22.045Z,633
2023-04-14T14:43:44.469Z,563
2023-04-14T14:45:07.889Z,485
2023-04-14T14:46:31.291Z,400
2023-04-14T14:47:54.713Z,356
2023-04-14T14:49:18.119Z,345
2023-04-14T14:50:41.510Z,329
2023-04-14T14:52:04.931Z,317
2023-04-14T14:53:28.339Z,331
2023-04-14T14:54:51.741Z,325
2023-04-14T14:56:15.145Z,323
2023-04-14T14:57:38.560Z,332
2023-04-14T14:59:01.973Z,346
2023-04-14T15:00:25.382Z,346
2023-04-14T15:01:47.810Z,328
2023-04-14T15:03:11.208Z,298
2023-04-14T15:04:34.629Z,302
2023-04-14T15:05:58.029Z,314
2023-04-14T15:07:21.434Z,303
2023-04-14T15:08:44.857Z,308
2023-04-14T15:10:08.263Z,270
2023-04-14T15:11:31.668Z,256
2023-04-14T15:12:55.064Z,264
2023-04-14T15:14:18.480Z,245
2023-04-14T15:15:41.883Z,293
2023-04-14T15:17:05.296Z,311
2023-04-14T15:18:28.696Z,331
2023-04-14T15:19:51.133Z,338
2023-04-14T15:21:14.530Z,334
2023-04-14T15:22:37.950Z,331
2023-04-14T15:24:01.361Z,332
2023-04-14T15:25:24.761Z,334
2023-04-14T15:26:48.183Z,349
2023-04-14T15:28:11.584Z,382
2023-04-14T15:29:35.010Z,405
2023-04-14T15:30:58.413Z,436
2023-04-14T15:32:21.811Z,472
2023-04-14T15:35:08.635Z,542
2023-04-14T15:36:32.049Z,579
2023-04-14T15:37:54.464Z,586
2023-04-14T15:39:17.874Z,648
2023-04-14T15:40:41.278Z,732
2023-04-14T15:42:04.688Z,760
2023-04-14T15:43:28.100Z,709
2023-04-14T15:44:51.516Z,3072
2023-04-14T15:46:14.916Z,576
2023-04-14T15:47:38.324Z,511
2023-04-14T15:49:01.740Z,397
2023-04-14T15:50:25.158Z,329
2023-04-14T15:51:48.551Z,285
2023-04-14T15:53:11.968Z,233
2023-04-14T15:54:35.376Z,181
2023-04-14T15:55:57.798Z,192
2023-04-14T15:57:21.220Z,193
2023-04-14T15:58:44.630Z,196
2023-04-14T16:00:08.029Z,208
2023-04-14T16:01:31.438Z,186
2023-04-14T16:02:54.843Z,185
2023-04-14T16:04:18.249Z,196
2023-04-14T16:05:41.667Z,198
2023-04-14T16:07:05.071Z,193
2023-04-14T16:08:28.491Z,171
2023-04-14T16:09:51.887Z,3072
2023-04-14T16:11:15.307Z,206
2023-04-14T16:12:38.710Z,219
2023-04-14T16:14:01.130Z,228
2023-04-14T16:15:24.542Z,231
2023-04-14T16:18:11.349Z,226
2023-04-14T16:19:34.756Z,231
2023-04-14T16:20:58.176Z,230
2023-04-14T16:22:21.579Z,241
2023-04-14T16:23:44.997Z,242
2023-04-14T16:25:08.396Z,254
2023-04-14T16:26:31.803Z,261
2023-04-14T16:27:55.216Z,273
2023-04-14T16:29:18.610Z,288
2023-04-14T16:30:42.012Z,292
2023-04-14T16:32:04.434Z,316
2023-04-14T16:33:27.858Z,361
2023-04-14T16:34:51.247Z,387
2023-04-14T16:36:14.668Z,360
2023-04-14T16:37:38.077Z,334
2023-04-14T16:39:01.487Z,332
2023-04-14T16:40:24.880Z,334
2023-04-14T16:41:48.297Z,292
2023-04-14T16:43:11.691Z,259
2023-04-14T16:44:35.105Z,241
2023-04-14T16:45:58.524Z,196
2023-04-14T16:47:21.926Z,177
2023-04-14T16:48:45.327Z,3072
2023-04-14T16:50:07.743Z,247
2023-04-14T16:51:31.000Z,234
2023-04-14T16:52:54.569Z,219
2023-04-14T16:54:17.983Z,193
2023-04-14T16:55:41.388Z,165
2023-04-14T16:57:04.776Z,170
2023-04-14T16:58:28.186Z,167
2023-04-14T16:59:51.607Z,170
2023-04-14T17:01:14.999Z,3072
2023-04-14T17:02:38.413Z,184
2023-04-14T17:04:01.815Z,200
2023-04-14T17:05:25.233Z,202
2023-04-14T17:06:48.648Z,193
2023-04-14T17:08:11.081Z,181
2023-04-14T17:09:34.485Z,187
2023-04-14T17:10:57.888Z,183
2023-04-14T17:12:21.301Z,182
2023-04-14T17:13:44.700Z,169
2023-04-14T17:15:08.103Z,3072
2023-04-14T17:16:31.517Z,171
2023-04-14T17:17:54.931Z,3072
2023-04-14T17:19:18.327Z,172
2023-04-14T17:20:41.723Z,184
2023-04-14T17:22:05.000Z,172
2023-04-14T17:23:28.537Z,177
2023-04-14T17:24:51.954Z,184
2023-04-14T17:26:14.370Z,185
2023-04-14T17:27:37.791Z,185
2023-04-14T17:43:01.044Z,77
2023-04-14T17:58:24.302Z,28
2023-04-14T18:13:47.558Z,3
2023-04-14T18:29:10.859Z,0
2023-04-14T18:44:34.149Z,0
2023-04-14T18:59:57.457Z,0
2023-04-14T19:15:20.766Z,0
2023-04-14T19:30:44.062Z,0
2023-04-14T19:46:07.359Z,0
2023-04-14T20:01:30.673Z,0
2023-04-14T20:16:53.981Z,0
2023-04-14T20:32:16.297Z,0
2023-04-14T20:47:39.598Z,0
2023-04-14T21:03:02.909Z,0
2023-04-14T21:18:26.220Z,0
2023-04-14T21:33:49.519Z,0
2023-04-14T21:49:12.817Z,0
2023-04-14T22:04:35.136Z,0
2023-04-14T22:19:58.425Z,0
2023-04-14T22:35:21.723Z,0
2023-04-14T22:50:45.029Z,0
2023-04-14T23:06:08.323Z,0
2023-04-14T23:21:31.645Z,0
2023-04-14T23:36:54.947Z,0
2023-04-14T23:52:18.243Z,0
